Time;durP1;ratioP1;P1;durP2;ratioP2;P2;SDS_P1;SDS_P2;PMS_P1;PMS_P2;Temp;Humidity;BMP_temperature;BMP_pressure;BME280_temperature;BME280_humidity;BME280_pressure;Samples;Min_cycle;Max_cycle;Signal;HPM_P1;HPM_P2
2021/07/17 00:00:37;;;;;;;1.57;1.47;;;19.90;99.90;;;;;;4956840;28;20170;-81
2021/07/17 00:03:04;;;;;;;1.07;0.90;;;19.80;99.90;;;;;;4955651;29;20675;-81
2021/07/17 00:05:31;;;;;;;1.90;1.53;;;19.80;99.90;;;;;;4951684;29;20178;-80
2021/07/17 00:07:57;;;;;;;1.60;1.50;;;19.90;99.90;;;;;;4937416;29;20497;-79
2021/07/17 00:10:38;;;;;;;1.67;1.40;;;19.90;99.90;;;;;;4941149;29;20427;-81
2021/07/17 00:13:04;;;;;;;0.77;0.60;;;19.90;99.90;;;;;;4941081;29;21031;-79
2021/07/17 00:15:29;;;;;;;1.80;1.63;;;19.80;99.90;;;;;;4943376;29;20417;-79
2021/07/17 00:17:55;;;;;;;1.40;1.30;;;19.80;99.90;;;;;;4954485;28;20473;-79
2021/07/17 00:20:22;;;;;;;3.10;1.80;;;19.80;99.90;;;;;;4935302;29;20206;-79
2021/07/17 00:22:48;;;;;;;1.40;1.30;;;19.80;99.90;;;;;;4942020;29;20194;-80
2021/07/17 00:25:16;;;;;;;3.00;2.80;;;19.80;99.90;;;;;;4945563;28;22093;-80
2021/07/17 00:27:42;;;;;;;1.37;0.80;;;19.80;99.90;;;;;;4942573;29;20524;-81
2021/07/17 00:30:08;;;;;;;1.20;1.10;;;19.80;99.90;;;;;;4948904;29;20433;-80
2021/07/17 00:32:34;;;;;;;2.40;2.20;;;19.80;99.90;;;;;;4940831;29;20207;-79
2021/07/17 00:35:00;;;;;;;1.33;1.20;;;19.80;99.90;;;;;;4936264;29;20562;-79
2021/07/17 00:37:26;;;;;;;1.57;1.47;;;19.80;99.90;;;;;;4946285;28;20493;-80
2021/07/17 00:39:51;;;;;;;1.57;1.47;;;19.80;99.90;;;;;;4935681;29;20651;-80
2021/07/17 00:42:17;;;;;;;5.20;1.23;;;19.80;99.90;;;;;;4940909;29;20199;-79
2021/07/17 00:44:42;;;;;;;3.40;2.00;;;19.80;99.90;;;;;;4955492;28;20237;-81
2021/07/17 00:47:08;;;;;;;2.20;1.97;;;19.80;99.90;;;;;;4944167;29;20178;-79
2021/07/17 00:49:35;;;;;;;1.10;1.03;;;19.80;99.90;;;;;;4937467;29;20183;-79
2021/07/17 00:52:01;;;;;;;3.10;2.67;;;19.80;99.90;;;;;;4928860;29;20210;-80
2021/07/17 00:54:31;;;;;;;3.27;2.07;;;19.80;99.90;;;;;;4932211;29;20424;-79
2021/07/17 00:56:59;;;;;;;1.40;1.00;;;19.80;99.90;;;;;;4940445;29;20426;-80
2021/07/17 00:59:28;;;;;;;2.33;1.13;;;19.80;99.90;;;;;;4943061;29;20452;-79
2021/07/17 01:01:55;;;;;;;3.50;1.57;;;19.80;99.90;;;;;;4940538;28;20455;-79
2021/07/17 01:04:22;;;;;;;1.73;1.60;;;19.80;99.90;;;;;;4953768;28;20512;-79
2021/07/17 01:06:49;;;;;;;6.47;3.47;;;19.80;99.90;;;;;;4939402;29;20426;-79
2021/07/17 01:09:15;;;;;;;0.97;0.87;;;19.80;99.90;;;;;;4944746;29;20504;-80
2021/07/17 01:11:41;;;;;;;2.17;1.90;;;19.80;99.90;;;;;;4954477;29;21022;-80
2021/07/17 01:14:06;;;;;;;2.50;2.30;;;19.80;99.90;;;;;;4954158;29;20446;-81
2021/07/17 01:16:32;;;;;;;3.10;1.50;;;19.80;99.90;;;;;;4950408;28;20186;-80
2021/07/17 01:18:58;;;;;;;3.80;2.60;;;19.80;99.90;;;;;;4944973;29;20181;-79
2021/07/17 01:21:24;;;;;;;1.83;1.73;;;19.80;99.90;;;;;;4945557;28;20442;-80
2021/07/17 01:23:49;;;;;;;2.30;1.60;;;19.80;99.90;;;;;;4934537;29;20203;-79
2021/07/17 01:26:16;;;;;;;1.73;1.63;;;19.80;99.90;;;;;;4934643;29;20209;-80
2021/07/17 01:28:42;;;;;;;1.30;0.70;;;19.80;99.90;;;;;;4952042;29;20210;-80
2021/07/17 01:31:08;;;;;;;1.50;0.80;;;19.80;99.90;;;;;;4939068;28;20418;-80
2021/07/17 01:33:34;;;;;;;3.33;1.50;;;19.80;99.90;;;;;;4933281;29;20973;-79
2021/07/17 01:36:00;;;;;;;2.40;2.17;;;19.70;99.90;;;;;;4944949;29;20505;-80
2021/07/17 01:38:26;;;;;;;0.90;0.80;;;19.80;99.90;;;;;;4938930;29;20506;-80
2021/07/17 01:40:52;;;;;;;1.70;1.47;;;19.70;99.90;;;;;;4934117;29;20224;-80
2021/07/17 01:43:17;;;;;;;1.20;1.10;;;19.70;99.90;;;;;;4936884;29;20564;-80
2021/07/17 01:45:45;;;;;;;1.60;1.20;;;19.70;99.90;;;;;;4954306;28;20187;-81
2021/07/17 01:48:12;;;;;;;1.33;1.20;;;19.70;99.90;;;;;;4940754;29;20426;-80
2021/07/17 01:50:39;;;;;;;1.43;1.17;;;19.60;99.90;;;;;;4960490;28;20422;-81
2021/07/17 01:53:06;;;;;;;2.70;2.50;;;19.60;99.90;;;;;;4936019;29;20458;-80
2021/07/17 01:55:32;;;;;;;1.30;1.10;;;19.50;99.90;;;;;;4954586;28;20410;-80
2021/07/17 01:57:59;;;;;;;1.30;1.00;;;19.50;99.90;;;;;;4939516;29;20453;-81
2021/07/17 02:00:25;;;;;;;1.07;0.97;;;19.60;99.90;;;;;;4946456;29;20177;-80
2021/07/17 02:02:51;;;;;;;3.23;1.43;;;19.60;99.90;;;;;;4941908;29;20446;-80
2021/07/17 02:05:18;;;;;;;1.50;1.07;;;19.50;99.90;;;;;;4945657;29;20783;-80
2021/07/17 02:07:47;;;;;;;1.70;1.10;;;19.60;99.90;;;;;;4936015;28;20427;-80
2021/07/17 02:10:18;;;;;;;1.37;1.27;;;19.50;99.90;;;;;;4948351;29;21012;-81
2021/07/17 02:13:06;;;;;;;2.50;1.37;;;19.50;99.90;;;;;;4937686;29;20811;-80
2021/07/17 02:15:41;;;;;;;2.03;1.00;;;19.50;99.90;;;;;;4949651;28;21846;-79
2021/07/17 02:18:06;;;;;;;2.50;2.30;;;19.50;99.90;;;;;;4953303;29;20933;-80
2021/07/17 02:20:32;;;;;;;2.40;2.20;;;19.50;99.90;;;;;;4946920;28;20419;-80
2021/07/17 02:22:58;;;;;;;1.60;1.50;;;19.50;99.90;;;;;;4937314;29;20202;-79
2021/07/17 02:25:23;;;;;;;3.93;3.73;;;19.50;99.90;;;;;;4936540;29;20438;-79
2021/07/17 02:27:49;;;;;;;9.57;4.80;;;19.50;99.90;;;;;;4950574;29;20521;-80
2021/07/17 02:30:15;;;;;;;1.33;1.23;;;19.50;99.90;;;;;;4942863;28;20190;-80
2021/07/17 02:32:41;;;;;;;2.37;2.17;;;19.50;99.90;;;;;;4933862;29;20213;-80
2021/07/17 02:35:07;;;;;;;1.73;1.13;;;19.50;99.90;;;;;;4937927;29;20422;-81
2021/07/17 02:37:32;;;;;;;1.17;1.07;;;19.50;99.90;;;;;;4938496;29;20189;-80
2021/07/17 02:39:58;;;;;;;1.77;1.47;;;19.50;99.90;;;;;;4950472;29;20433;-80
2021/07/17 02:42:24;;;;;;;1.30;1.20;;;19.50;99.90;;;;;;4938493;28;20206;-79
2021/07/17 02:44:49;;;;;;;5.33;2.30;;;19.50;99.90;;;;;;4941702;29;20191;-79
2021/07/17 02:47:16;;;;;;;2.10;2.00;;;19.50;99.90;;;;;;4937194;29;20179;-80
2021/07/17 02:49:42;;;;;;;1.30;1.20;;;19.40;99.90;;;;;;4939142;29;20183;-79
2021/07/17 02:52:07;;;;;;;2.20;0.93;;;19.40;99.90;;;;;;4946684;29;20548;-80
2021/07/17 02:54:33;;;;;;;3.50;1.47;;;19.40;99.90;;;;;;4955397;28;20913;-79
2021/07/17 02:56:59;;;;;;;1.40;1.30;;;19.30;99.90;;;;;;4951765;29;20675;-80
2021/07/17 02:59:24;;;;;;;3.97;1.37;;;19.30;99.90;;;;;;4954804;28;20170;-80
2021/07/17 03:01:49;;;;;;;2.70;1.53;;;19.30;99.90;;;;;;4955402;29;20198;-80
2021/07/17 03:04:15;;;;;;;3.47;1.83;;;19.20;99.90;;;;;;4950355;28;20175;-79
2021/07/17 03:06:41;;;;;;;1.40;0.90;;;19.20;99.90;;;;;;4938300;29;20257;-79
2021/07/17 03:09:06;;;;;;;1.60;1.50;;;19.20;99.90;;;;;;4952450;28;20179;-80
2021/07/17 03:11:33;;;;;;;1.00;0.90;;;19.30;99.90;;;;;;4936099;29;20203;-80
2021/07/17 03:14:00;;;;;;;1.83;1.73;;;19.30;99.90;;;;;;4935850;29;20170;-81
2021/07/17 03:16:25;;;;;;;1.00;0.90;;;19.20;99.90;;;;;;4937034;28;20794;-81
2021/07/17 03:18:52;;;;;;;1.90;1.80;;;19.20;99.90;;;;;;4936125;29;20415;-80
2021/07/17 03:21:18;;;;;;;1.53;1.00;;;19.20;99.90;;;;;;4929088;29;20245;-80
2021/07/17 03:23:44;;;;;;;1.83;0.97;;;19.20;99.90;;;;;;4935932;29;20482;-80
2021/07/17 03:26:09;;;;;;;1.40;1.30;;;19.10;99.90;;;;;;4936089;29;20450;-80
2021/07/17 03:28:35;;;;;;;1.50;1.40;;;19.10;99.90;;;;;;4937189;29;20187;-80
2021/07/17 03:31:01;;;;;;;1.67;1.57;;;19.10;99.90;;;;;;4951877;29;20240;-80
2021/07/17 03:33:27;;;;;;;2.90;2.17;;;19.10;99.90;;;;;;4938300;28;20203;-79
2021/07/17 03:35:52;;;;;;;6.80;2.50;;;19.10;99.90;;;;;;4937010;29;20250;-81
2021/07/17 03:38:18;;;;;;;1.60;1.50;;;19.10;99.90;;;;;;4940973;29;20429;-80
2021/07/17 03:40:43;;;;;;;2.60;1.20;;;19.00;99.90;;;;;;4956761;28;20253;-80
2021/07/17 03:43:10;;;;;;;1.00;0.87;;;19.10;99.90;;;;;;4951065;28;20661;-79
2021/07/17 03:45:36;;;;;;;1.70;1.60;;;19.10;99.90;;;;;;4942671;29;20238;-80
2021/07/17 03:48:01;;;;;;;0.93;0.83;;;19.10;99.90;;;;;;4936730;29;20426;-79
2021/07/17 03:50:27;;;;;;;0.93;0.83;;;19.10;99.90;;;;;;4936625;29;20254;-79
2021/07/17 03:52:52;;;;;;;1.70;1.30;;;19.10;99.90;;;;;;4941137;29;20305;-80
2021/07/17 03:55:18;;;;;;;2.40;1.13;;;19.10;99.90;;;;;;4928219;29;20261;-80
2021/07/17 03:57:44;;;;;;;4.30;2.40;;;19.10;99.90;;;;;;4941916;29;20174;-79
2021/07/17 04:00:10;;;;;;;2.13;0.93;;;19.10;99.90;;;;;;4935385;29;20418;-80
2021/07/17 04:02:42;;;;;;;3.17;2.97;;;19.10;99.90;;;;;;4949816;29;20196;-79
2021/07/17 04:05:14;;;;;;;1.23;0.87;;;19.00;99.90;;;;;;4955040;28;20426;-79
2021/07/17 04:07:40;;;;;;;1.40;1.30;;;19.00;99.90;;;;;;4954575;29;20422;-80
2021/07/17 04:10:08;;;;;;;5.80;3.50;;;19.00;99.90;;;;;;4953725;28;20446;-80
2021/07/17 04:12:33;;;;;;;2.50;2.40;;;19.10;99.90;;;;;;4935423;29;20469;-80
2021/07/17 04:14:59;;;;;;;1.30;1.13;;;19.00;99.90;;;;;;4936816;29;20777;-80
2021/07/17 04:17:25;;;;;;;1.00;0.90;;;19.00;99.90;;;;;;4937153;29;20182;-80
2021/07/17 04:19:52;;;;;;;1.57;1.00;;;19.00;99.90;;;;;;4933735;29;20206;-81
2021/07/17 04:22:17;;;;;;;2.13;1.93;;;19.00;99.90;;;;;;4935972;29;20450;-80
2021/07/17 04:24:43;;;;;;;1.53;1.20;;;19.00;99.90;;;;;;4937076;29;20928;-79
2021/07/17 04:27:08;;;;;;;1.57;1.40;;;19.00;99.90;;;;;;4934994;29;20171;-81
2021/07/17 04:29:34;;;;;;;4.03;1.83;;;19.00;99.90;;;;;;4935772;29;20183;-81
2021/07/17 04:31:59;;;;;;;2.57;2.37;;;19.00;99.90;;;;;;4945086;29;20205;-80
2021/07/17 04:34:25;;;;;;;1.07;0.80;;;19.00;99.90;;;;;;4933630;29;20254;-80
2021/07/17 04:36:51;;;;;;;2.00;1.90;;;19.00;99.90;;;;;;4934630;29;20532;-80
2021/07/17 04:39:17;;;;;;;2.97;2.77;;;19.00;99.90;;;;;;4936141;29;20183;-82
2021/07/17 04:41:43;;;;;;;2.60;1.17;;;19.10;99.90;;;;;;4946317;29;20198;-81
2021/07/17 04:44:08;;;;;;;2.90;2.00;;;19.10;99.90;;;;;;4938873;29;20481;-81
2021/07/17 04:46:34;;;;;;;4.80;2.67;;;19.10;99.90;;;;;;4935418;29;20175;-80
2021/07/17 04:48:59;;;;;;;4.20;3.00;;;19.10;99.90;;;;;;4949077;29;20174;-80
2021/07/17 04:51:25;;;;;;;1.60;1.50;;;19.10;99.90;;;;;;4951321;28;20199;-82
2021/07/17 04:53:51;;;;;;;4.47;2.93;;;19.20;99.90;;;;;;4936237;29;20672;-80
2021/07/17 04:56:16;;;;;;;3.90;3.60;;;19.20;99.90;;;;;;4935102;29;20230;-80
2021/07/17 04:58:42;;;;;;;1.23;1.10;;;19.20;99.90;;;;;;4949281;29;20249;-83
2021/07/17 05:01:07;;;;;;;6.93;1.93;;;19.20;99.90;;;;;;4950558;28;20257;-80
2021/07/17 05:03:35;;;;;;;1.07;0.97;;;19.20;99.90;;;;;;4942510;28;20189;-79
2021/07/17 05:06:01;;;;;;;2.03;1.30;;;19.30;99.90;;;;;;4946488;28;20549;-80
2021/07/17 05:08:26;;;;;;;1.43;1.00;;;19.30;99.90;;;;;;4950576;29;20432;-80
2021/07/17 05:10:52;;;;;;;2.50;0.93;;;19.20;99.90;;;;;;4946359;29;20178;-80
2021/07/17 05:13:18;;;;;;;1.20;1.10;;;19.30;99.90;;;;;;4955039;28;20206;-80
2021/07/17 05:15:44;;;;;;;1.10;1.00;;;19.20;99.90;;;;;;4946165;29;20269;-79
2021/07/17 05:18:12;;;;;;;2.10;2.00;;;19.20;99.90;;;;;;4950105;29;20430;-80
2021/07/17 05:20:41;;;;;;;2.43;1.30;;;19.30;99.90;;;;;;4936549;29;20425;-79
2021/07/17 05:23:07;;;;;;;5.30;2.30;;;19.30;99.90;;;;;;4935645;29;20447;-80
2021/07/17 05:25:33;;;;;;;2.70;2.20;;;19.30;99.90;;;;;;4934185;29;20477;-81
2021/07/17 05:27:58;;;;;;;1.00;0.80;;;19.30;99.90;;;;;;4947383;29;20943;-80
2021/07/17 05:30:24;;;;;;;3.00;1.80;;;19.30;99.90;;;;;;4953773;28;20812;-80
2021/07/17 05:32:50;;;;;;;3.43;1.80;;;19.30;99.90;;;;;;4935571;29;20710;-80
2021/07/17 05:35:16;;;;;;;1.40;1.30;;;19.30;99.90;;;;;;4946739;29;20437;-79
2021/07/17 05:37:42;;;;;;;2.30;1.73;;;19.30;99.90;;;;;;4952648;29;20426;-81
2021/07/17 05:40:08;;;;;;;1.90;1.80;;;19.40;99.90;;;;;;4945662;28;20171;-80
2021/07/17 05:42:33;;;;;;;2.37;1.40;;;19.50;99.90;;;;;;4934692;29;20246;-80
2021/07/17 05:44:59;;;;;;;3.07;1.60;;;19.60;99.90;;;;;;4949168;29;20430;-83
2021/07/17 05:47:25;;;;;;;2.90;1.67;;;19.60;99.90;;;;;;4942966;29;20557;-80
2021/07/17 05:49:51;;;;;;;1.40;1.10;;;19.70;99.90;;;;;;4937202;29;20533;-79
2021/07/17 05:52:16;;;;;;;3.03;0.90;;;19.70;99.90;;;;;;4935435;29;20455;-80
2021/07/17 05:54:42;;;;;;;1.70;1.50;;;19.80;99.90;;;;;;4930901;29;20170;-80
2021/07/17 05:57:08;;;;;;;1.40;1.30;;;19.90;99.90;;;;;;4941200;29;20181;-81
2021/07/17 05:59:35;;;;;;;1.13;0.93;;;19.90;99.90;;;;;;4943770;28;20550;-81
2021/07/17 06:02:00;;;;;;;2.33;1.80;;;20.00;99.90;;;;;;4941256;28;20982;-80
2021/07/17 06:04:26;;;;;;;2.80;2.00;;;19.90;99.90;;;;;;4948129;29;20418;-80
2021/07/17 06:06:51;;;;;;;1.93;1.53;;;19.90;99.90;;;;;;4947676;28;20186;-81
2021/07/17 06:09:17;;;;;;;1.63;1.53;;;20.00;99.90;;;;;;4952704;29;20202;-80
2021/07/17 06:11:42;;;;;;;2.17;2.03;;;20.00;99.90;;;;;;4950859;29;20240;-82
2021/07/17 06:14:08;;;;;;;1.33;1.23;;;19.90;99.90;;;;;;4954757;28;20170;-81
2021/07/17 06:16:33;;;;;;;1.87;1.07;;;20.00;99.90;;;;;;4951413;29;20665;-80
2021/07/17 06:18:59;;;;;;;1.50;0.80;;;19.90;99.90;;;;;;4954271;28;20270;-82
2021/07/17 06:21:24;;;;;;;1.80;1.70;;;19.80;99.90;;;;;;4955950;29;20226;-81
2021/07/17 06:23:50;;;;;;;4.03;3.67;;;19.90;99.90;;;;;;4957657;28;20175;-81
2021/07/17 06:26:15;;;;;;;1.00;0.90;;;20.00;99.90;;;;;;4949844;29;20244;-81
2021/07/17 06:28:41;;;;;;;3.83;2.73;;;19.80;99.90;;;;;;4950469;29;20194;-81
2021/07/17 06:31:07;;;;;;;1.17;1.07;;;19.80;99.90;;;;;;4943545;28;20171;-81
2021/07/17 06:33:34;;;;;;;4.80;2.93;;;19.80;99.90;;;;;;4946794;29;20203;-82
2021/07/17 06:36:00;;;;;;;1.60;1.37;;;19.80;99.90;;;;;;4955839;29;20209;-80
2021/07/17 06:38:25;;;;;;;1.27;1.17;;;19.80;99.90;;;;;;4939433;29;20419;-81
2021/07/17 06:40:51;;;;;;;2.30;1.53;;;19.80;99.90;;;;;;4937375;29;20528;-81
2021/07/17 06:43:16;;;;;;;0.97;0.87;;;19.80;99.90;;;;;;4937360;29;20226;-81
2021/07/17 06:45:42;;;;;;;3.90;3.17;;;19.80;99.90;;;;;;4939921;29;20201;-82
2021/07/17 06:48:08;;;;;;;1.60;1.50;;;19.80;99.90;;;;;;4945750;29;20181;-81
2021/07/17 06:50:34;;;;;;;1.20;1.10;;;19.80;99.90;;;;;;4955243;28;20457;-80
2021/07/17 06:52:59;;;;;;;1.67;1.57;;;19.80;99.90;;;;;;4947430;29;20563;-80
2021/07/17 06:55:26;;;;;;;1.67;1.57;;;19.80;99.90;;;;;;4942186;29;20215;-81
2021/07/17 06:57:52;;;;;;;1.53;1.43;;;19.80;99.90;;;;;;4949153;29;20709;-81
2021/07/17 07:00:18;;;;;;;1.97;1.87;;;19.90;99.90;;;;;;4953202;28;20509;-80
2021/07/17 07:02:44;;;;;;;1.17;1.07;;;20.00;99.90;;;;;;4938399;29;20240;-81
2021/07/17 07:05:10;;;;;;;4.20;2.50;;;19.90;99.90;;;;;;4936495;29;21025;-81
2021/07/17 07:07:36;;;;;;;2.40;1.43;;;20.00;99.90;;;;;;4937954;29;20183;-80
2021/07/17 07:10:05;;;;;;;4.23;3.10;;;20.00;99.90;;;;;;4938583;29;20516;-80
2021/07/17 07:12:31;;;;;;;3.43;2.10;;;20.00;99.90;;;;;;4949127;29;20691;-80
2021/07/17 07:14:57;;;;;;;2.10;2.00;;;20.00;99.90;;;;;;4953702;28;20426;-80
2021/07/17 07:17:22;;;;;;;1.60;1.50;;;20.00;99.90;;;;;;4945395;29;20426;-82
2021/07/17 07:19:48;;;;;;;4.83;2.50;;;20.20;99.90;;;;;;4956820;28;20229;-80
2021/07/17 07:22:13;;;;;;;2.33;2.10;;;20.10;99.90;;;;;;4955096;28;20194;-81
2021/07/17 07:24:39;;;;;;;1.67;0.93;;;20.10;99.90;;;;;;4945549;28;20191;-80
2021/07/17 07:27:04;;;;;;;2.00;1.60;;;20.10;99.90;;;;;;4944950;29;20242;-80
2021/07/17 07:29:30;;;;;;;2.33;1.87;;;20.20;99.90;;;;;;4945049;29;20187;-81
2021/07/17 07:31:55;;;;;;;2.73;2.53;;;20.20;99.90;;;;;;4945765;29;20683;-81
2021/07/17 07:34:21;;;;;;;4.80;3.10;;;20.30;99.90;;;;;;4956778;28;20182;-81
2021/07/17 07:36:50;;;;;;;1.80;1.60;;;20.30;99.90;;;;;;4952196;28;20179;-81
2021/07/17 07:39:17;;;;;;;2.97;1.70;;;20.40;99.90;;;;;;4952357;29;20272;-82
2021/07/17 07:41:43;;;;;;;3.57;1.80;;;20.40;99.90;;;;;;4941678;28;20443;-82
2021/07/17 07:44:09;;;;;;;2.00;1.60;;;20.30;99.90;;;;;;4941360;28;20959;-82
2021/07/17 07:46:34;;;;;;;4.20;3.20;;;20.30;99.90;;;;;;4941854;29;20457;-82
2021/07/17 07:49:02;;;;;;;4.37;2.60;;;20.30;99.90;;;;;;4942298;29;20262;-82
2021/07/17 07:51:34;;;;;;;2.30;2.07;;;20.40;99.90;;;;;;4954324;28;20194;-84
2021/07/17 07:54:00;;;;;;;2.80;2.30;;;20.40;99.90;;;;;;4936519;29;20438;-83
2021/07/17 07:56:26;;;;;;;1.50;1.40;;;20.50;99.90;;;;;;4938647;29;20419;-81
2021/07/17 07:58:51;;;;;;;2.60;2.40;;;20.60;99.90;;;;;;4943388;28;20233;-82
2021/07/17 08:01:17;;;;;;;2.50;1.90;;;20.70;99.90;;;;;;4942930;29;20182;-81
2021/07/17 08:03:42;;;;;;;3.63;3.23;;;20.80;99.90;;;;;;4937588;29;20262;-81
2021/07/17 08:06:08;;;;;;;4.00;1.83;;;20.60;99.90;;;;;;4938254;29;20198;-80
2021/07/17 08:08:33;;;;;;;4.60;2.73;;;20.70;99.90;;;;;;4945927;29;20178;-82
2021/07/17 08:11:00;;;;;;;5.30;2.30;;;20.70;99.90;;;;;;4945694;29;20178;-81
2021/07/17 08:13:26;;;;;;;7.80;2.60;;;20.60;99.90;;;;;;4956936;29;20568;-83
2021/07/17 08:15:53;;;;;;;2.50;2.30;;;20.60;99.90;;;;;;4942890;28;20494;-82
2021/07/17 08:18:19;;;;;;;3.90;2.40;;;20.60;99.90;;;;;;4937580;29;20178;-81
2021/07/17 08:20:44;;;;;;;5.13;3.07;;;20.60;99.90;;;;;;4936160;29;20505;-81
2021/07/17 08:23:10;;;;;;;4.60;4.30;;;20.60;99.90;;;;;;4935990;29;20510;-82
2021/07/17 08:25:36;;;;;;;2.83;2.23;;;20.70;99.90;;;;;;4947878;29;20199;-81
2021/07/17 08:28:03;;;;;;;3.77;1.90;;;20.80;99.90;;;;;;4942777;29;20183;-82
2021/07/17 08:30:28;;;;;;;3.77;3.47;;;20.90;99.90;;;;;;4938938;29;20919;-81
2021/07/17 08:32:55;;;;;;;6.43;4.13;;;20.90;99.90;;;;;;4947192;29;20465;-82
2021/07/17 08:35:21;;;;;;;4.83;4.43;;;20.90;99.90;;;;;;4953933;29;20550;-82
2021/07/17 08:37:47;;;;;;;4.50;2.50;;;20.90;99.90;;;;;;4948362;28;20426;-82
2021/07/17 08:40:12;;;;;;;5.33;2.30;;;20.90;99.90;;;;;;4943828;28;20426;-82
2021/07/17 08:42:44;;;;;;;2.80;2.00;;;21.00;99.90;;;;;;4948902;28;20225;-84
2021/07/17 08:45:10;;;;;;;3.37;2.30;;;21.10;99.90;;;;;;4948590;28;20180;-82
2021/07/17 08:47:40;;;;;;;6.07;4.33;;;21.10;99.90;;;;;;4941739;29;20434;-81
2021/07/17 08:50:12;;;;;;;3.63;2.20;;;21.20;99.90;;;;;;4938169;29;20433;-81
2021/07/17 08:52:42;;;;;;;2.63;2.30;;;21.20;99.90;;;;;;4954194;28;20603;-84
2021/07/17 08:55:11;;;;;;;4.17;2.33;;;21.20;99.90;;;;;;4954331;29;20422;-82
2021/07/17 08:57:40;;;;;;;4.73;4.23;;;21.20;99.90;;;;;;4952049;29;20429;-81
2021/07/17 09:00:28;;;;;;;2.90;2.13;;;21.20;99.90;;;;;;4940421;28;20477;-81
2021/07/17 09:02:57;;;;;;;3.70;2.03;;;21.30;99.90;;;;;;4969130;28;20496;-82
2021/07/17 09:05:28;;;;;;;2.43;1.93;;;21.40;99.90;;;;;;4942454;28;20495;-82
2021/07/17 09:07:55;;;;;;;2.93;2.60;;;21.50;99.90;;;;;;4944503;29;20433;-81
2021/07/17 09:10:30;;;;;;;5.20;2.97;;;21.50;99.90;;;;;;4950524;28;20454;-81
2021/07/17 09:13:15;;;;;;;3.93;1.90;;;21.60;99.90;;;;;;4934855;29;20834;-81
2021/07/17 09:16:12;;;;;;;4.87;3.03;;;21.80;99.90;;;;;;4934326;29;20446;-82
2021/07/17 09:18:38;;;;;;;3.90;2.80;;;21.90;99.90;;;;;;4953712;28;20425;-82
2021/07/17 09:21:06;;;;;;;2.33;1.67;;;21.90;99.90;;;;;;4952522;29;20441;-82
2021/07/17 09:23:36;;;;;;;2.13;1.70;;;22.00;99.90;;;;;;4935186;29;20584;-81
2021/07/17 09:26:18;;;;;;;4.20;3.80;;;22.10;99.90;;;;;;4933559;28;20490;-82
2021/07/17 09:28:57;;;;;;;6.00;5.50;;;22.10;99.90;;;;;;4953257;28;20421;-82
2021/07/17 09:31:25;;;;;;;8.83;2.37;;;22.20;99.90;;;;;;4953546;29;20504;-82
2021/07/17 09:34:00;;;;;;;3.17;2.80;;;22.40;99.90;;;;;;4953512;28;20465;-83
2021/07/17 09:36:25;;;;;;;2.63;2.40;;;22.30;99.90;;;;;;4949619;29;20433;-82
2021/07/17 09:38:51;;;;;;;1.40;1.30;;;22.40;99.90;;;;;;4955944;28;20414;-81
2021/07/17 09:41:21;;;;;;;2.27;2.07;;;22.60;99.90;;;;;;4955350;28;20253;-82
2021/07/17 09:43:59;;;;;;;3.47;3.17;;;22.70;99.90;;;;;;4947222;28;20454;-82
2021/07/17 09:46:26;;;;;;;5.60;2.27;;;22.80;99.90;;;;;;4946293;29;20448;-82
2021/07/17 09:48:55;;;;;;;3.73;3.10;;;22.90;99.90;;;;;;4947627;29;20426;-81
2021/07/17 09:51:24;;;;;;;2.73;2.07;;;22.80;99.90;;;;;;4936305;29;20446;-81
2021/07/17 09:53:55;;;;;;;4.37;2.63;;;23.00;99.90;;;;;;4955551;28;20434;-82
2021/07/17 09:56:26;;;;;;;3.00;2.13;;;23.00;99.90;;;;;;4957163;29;20518;-83
2021/07/17 09:58:54;;;;;;;2.27;2.00;;;23.20;99.90;;;;;;4956454;29;20795;-82
2021/07/17 10:01:24;;;;;;;1.60;1.50;;;23.30;99.90;;;;;;4954291;29;20437;-82
2021/07/17 10:03:57;;;;;;;3.80;2.60;;;23.40;99.90;;;;;;4938876;29;20395;-82
2021/07/17 10:06:27;;;;;;;5.50;2.63;;;23.60;99.90;;;;;;4951106;29;20546;-82
2021/07/17 10:08:52;;;;;;;3.40;3.20;;;23.80;99.90;;;;;;4947988;29;20936;-82
2021/07/17 10:11:28;;;;;;;2.87;2.67;;;24.00;99.90;;;;;;4940026;29;20409;-81
2021/07/17 10:14:18;;;;;;;8.10;4.00;;;24.30;99.90;;;;;;4956343;29;20181;-82
2021/07/17 10:16:47;;;;;;;3.47;3.17;;;24.80;99.90;;;;;;4943346;28;20438;-81
2021/07/17 10:19:15;;;;;;;3.40;2.67;;;25.30;99.90;;;;;;4956331;29;20772;-81
2021/07/17 10:21:41;;;;;;;7.60;3.00;;;26.00;99.90;;;;;;4926901;29;20451;-82
2021/07/17 10:24:07;;;;;;;3.77;3.30;;;26.70;99.90;;;;;;4948275;28;20410;-80
2021/07/17 10:26:33;;;;;;;2.60;2.20;;;27.40;99.90;;;;;;4939891;29;20262;-81
2021/07/17 10:29:05;;;;;;;2.23;1.97;;;27.70;99.90;;;;;;4943489;29;20183;-80
2021/07/17 10:31:31;;;;;;;2.37;2.17;;;27.80;99.90;;;;;;4947812;29;20843;-82
2021/07/17 10:33:56;;;;;;;2.23;2.00;;;28.10;99.90;;;;;;4929228;29;20480;-81
2021/07/17 10:36:24;;;;;;;2.60;2.20;;;28.60;99.90;;;;;;4953231;28;20487;-79
2021/07/17 10:38:54;;;;;;;4.23;3.37;;;28.90;99.90;;;;;;4942482;29;20183;-79
2021/07/17 10:41:20;;;;;;;1.73;1.60;;;29.30;99.90;;;;;;4940724;29;20514;-80
2021/07/17 10:43:53;;;;;;;3.30;1.50;;;29.50;99.90;;;;;;4944989;29;20414;-80
2021/07/17 10:46:40;;;;;;;2.00;1.80;;;30.00;99.90;;;;;;4941679;29;20418;-80
2021/07/17 10:49:12;;;;;;;4.53;2.27;;;30.60;99.90;;;;;;4943927;29;20430;-80
2021/07/17 10:51:49;;;;;;;2.43;1.80;;;31.00;99.90;;;;;;4948037;28;20446;-80
2021/07/17 10:54:27;;;;;;;1.87;1.50;;;31.20;99.90;;;;;;4948062;29;20442;-80
2021/07/17 10:56:53;;;;;;;2.60;2.40;;;31.40;99.90;;;;;;4944516;29;20469;-81
2021/07/17 10:59:19;;;;;;;1.80;1.70;;;31.50;99.90;;;;;;4946646;29;20433;-80
2021/07/17 11:01:56;;;;;;;2.90;2.33;;;31.50;99.90;;;;;;4947709;29;20231;-80
2021/07/17 11:04:54;;;;;;;2.63;2.43;;;31.70;99.90;;;;;;4947295;29;20179;-80
2021/07/17 11:07:20;;;;;;;1.70;1.60;;;31.90;99.90;;;;;;4939681;29;20858;-81
2021/07/17 11:10:04;;;;;;;1.50;1.40;;;32.10;99.90;;;;;;4939265;28;20450;-80
2021/07/17 11:12:33;;;;;;;4.27;3.90;;;32.50;99.90;;;;;;4937560;29;20203;-82
2021/07/17 11:15:08;;;;;;;2.20;2.00;;;32.50;99.90;;;;;;4931422;29;20470;-82
2021/07/17 11:17:46;;;;;;;2.70;2.43;;;32.60;99.90;;;;;;4938476;29;20936;-82
2021/07/17 11:20:32;;;;;;;2.47;2.27;;;32.80;99.90;;;;;;4957745;29;20426;-81
2021/07/17 11:23:02;;;;;;;2.20;2.00;;;32.90;99.90;;;;;;4946076;28;20462;-80
2021/07/17 11:25:28;;;;;;;1.83;1.73;;;33.00;99.90;;;;;;4939705;29;20549;-81
2021/07/17 11:27:53;;;;;;;1.73;1.50;;;32.90;99.90;;;;;;4941271;29;20450;-81
2021/07/17 11:30:21;;;;;;;2.40;2.20;;;33.00;99.90;;;;;;4956010;28;20183;-81
2021/07/17 11:33:05;;;;;;;2.17;2.07;;;33.20;99.90;;;;;;4940809;29;20210;-82
2021/07/17 11:35:31;;;;;;;1.67;1.57;;;33.40;99.90;;;;;;4946754;29;20443;-80
2021/07/17 11:37:57;;;;;;;2.40;2.03;;;33.50;99.90;;;;;;4949147;29;20955;-81
2021/07/17 11:40:22;;;;;;;2.37;1.50;;;33.50;99.90;;;;;;4940188;29;20482;-81
2021/07/17 11:42:49;;;;;;;2.40;1.40;;;33.50;99.90;;;;;;4939098;29;20447;-82
2021/07/17 11:45:14;;;;;;;2.70;2.50;;;33.80;99.90;;;;;;4939003;29;20281;-81
2021/07/17 11:47:41;;;;;;;2.80;2.60;;;33.90;99.00;;;;;;4938073;29;21186;-84
2021/07/17 11:50:07;;;;;;;2.47;2.20;;;33.80;99.10;;;;;;4954554;28;20186;-83
2021/07/17 11:52:36;;;;;;;8.03;2.20;;;33.70;98.90;;;;;;4935405;29;20570;-81
2021/07/17 11:55:09;;;;;;;4.97;1.33;;;33.70;99.90;;;;;;4941837;29;20436;-82
2021/07/17 11:57:36;;;;;;;3.93;3.70;;;33.70;99.10;;;;;;4941910;28;20546;-82
2021/07/17 12:00:17;;;;;;;2.77;2.53;;;33.90;99.10;;;;;;4948576;29;20421;-81
2021/07/17 12:02:44;;;;;;;2.10;1.87;;;33.90;99.80;;;;;;4957718;29;20445;-82
2021/07/17 12:05:14;;;;;;;1.40;1.30;;;34.20;99.30;;;;;;4950082;28;20441;-82
2021/07/17 12:07:42;;;;;;;1.90;1.80;;;34.30;98.40;;;;;;4951311;28;20526;-82
2021/07/17 12:10:16;;;;;;;2.30;1.80;;;34.40;97.00;;;;;;4939003;29;20439;-81
2021/07/17 12:12:46;;;;;;;1.47;1.37;;;34.40;95.90;;;;;;4954019;28;20477;-82
2021/07/17 12:15:28;;;;;;;2.57;2.37;;;34.20;95.60;;;;;;4939532;29;20427;-81
2021/07/17 12:18:00;;;;;;;1.53;1.40;;;34.20;95.70;;;;;;4941221;29;21012;-83
2021/07/17 12:20:25;;;;;;;1.70;1.60;;;34.70;97.40;;;;;;4942384;29;20887;-82
2021/07/17 12:23:09;;;;;;;1.40;1.30;;;34.80;93.30;;;;;;4938007;29;20486;-81
2021/07/17 12:25:39;;;;;;;3.20;1.20;;;34.80;93.40;;;;;;4936643;29;20270;-82
2021/07/17 12:28:06;;;;;;;1.30;1.00;;;34.90;92.90;;;;;;4939406;29;20494;-82
2021/07/17 12:30:37;;;;;;;3.63;1.80;;;35.10;92.70;;;;;;4946653;28;20480;-82
2021/07/17 12:33:17;;;;;;;1.43;1.33;;;34.90;92.80;;;;;;4954023;29;20468;-82
2021/07/17 12:35:43;;;;;;;1.40;1.17;;;34.90;92.30;;;;;;4935924;29;20472;-83
2021/07/17 12:38:25;;;;;;;1.40;1.30;;;35.00;92.00;;;;;;4931838;29;20495;-82
2021/07/17 12:41:21;;;;;;;1.20;1.10;;;35.10;93.90;;;;;;4938871;29;20462;-83
2021/07/17 12:43:48;;;;;;;1.23;1.13;;;35.10;92.20;;;;;;4950227;28;20431;-82
2021/07/17 12:46:24;;;;;;;1.10;1.00;;;34.80;91.70;;;;;;4937139;29;20435;-81
2021/07/17 12:48:58;;;;;;;1.30;1.20;;;34.70;92.30;;;;;;4933626;29;20426;-82
2021/07/17 12:51:33;;;;;;;1.40;1.17;;;34.80;92.20;;;;;;4938741;29;20447;-81